createdAt,value
2023-05-24T00:00:44.169Z,88.37
2023-05-24T00:03:11.538Z,90.86
2023-05-24T00:05:38.804Z,92.07
2023-05-24T00:08:06.031Z,92.00
2023-05-24T00:10:34.600Z,92.15
2023-05-24T00:13:01.819Z,92.12
2023-05-24T00:15:29.042Z,92.41
2023-05-24T00:17:56.301Z,92.17
2023-05-24T00:20:23.548Z,92.09
2023-05-24T00:22:50.729Z,91.22
2023-05-24T00:25:17.976Z,91.86
2023-05-24T00:27:46.725Z,90.22
2023-05-24T00:30:14.104Z,87.17
2023-05-24T00:32:41.365Z,85.21
2023-05-24T00:35:08.984Z,84.88
2023-05-24T00:37:36.402Z,85.81
2023-05-24T00:40:04.217Z,83.97
2023-05-24T00:42:31.466Z,86.29
2023-05-24T00:45:00.048Z,85.70
2023-05-24T00:47:27.607Z,86.48
2023-05-24T00:49:55.084Z,86.48
2023-05-24T00:52:22.864Z,85.19
2023-05-24T00:54:50.190Z,84.61
2023-05-24T00:57:17.460Z,83.69
2023-05-24T00:59:45.402Z,83.04
2023-05-24T01:02:14.056Z,83.37
2023-05-24T01:04:41.250Z,83.23
2023-05-24T01:07:18.581Z,82.95
2023-05-24T01:09:55.435Z,82.52
2023-05-24T01:12:31.044Z,82.57
2023-05-24T01:15:07.054Z,82.16
2023-05-24T01:17:45.994Z,81.70
2023-05-24T01:20:16.684Z,82.02
2023-05-24T01:23:03.956Z,81.87
2023-05-24T01:25:53.213Z,82.21
2023-05-24T01:28:23.302Z,82.44
2023-05-24T01:30:54.534Z,82.74
2023-05-24T01:33:24.459Z,82.63
2023-05-24T01:35:51.689Z,82.92
2023-05-24T01:38:18.910Z,84.01
2023-05-24T01:40:52.604Z,84.28
2023-05-24T01:43:31.596Z,84.14
2023-05-24T01:46:06.604Z,84.26
2023-05-24T01:48:48.329Z,84.05
2023-05-24T01:51:19.465Z,83.62
2023-05-24T01:53:50.712Z,83.90
2023-05-24T01:56:19.462Z,83.82
2023-05-24T01:58:50.765Z,83.97
2023-05-24T02:01:18.285Z,83.97
2023-05-24T02:03:46.073Z,83.94
2023-05-24T02:06:13.878Z,84.03
2023-05-24T02:08:41.099Z,83.95
2023-05-24T02:11:08.335Z,84.50
2023-05-24T02:13:35.528Z,85.21
2023-05-24T02:16:04.617Z,85.49
2023-05-24T02:18:31.854Z,85.76
2023-05-24T02:20:59.067Z,85.96
2023-05-24T02:23:26.389Z,86.06
2023-05-24T02:25:53.957Z,86.26
2023-05-24T02:28:21.197Z,86.45
2023-05-24T02:30:48.480Z,86.50
2023-05-24T02:33:17.159Z,86.75
2023-05-24T02:35:44.474Z,86.50
2023-05-24T02:38:11.697Z,86.46
2023-05-24T02:40:39.354Z,86.72
2023-05-24T02:43:06.579Z,86.63
2023-05-24T02:45:33.814Z,86.52
2023-05-24T02:48:01.041Z,86.03
2023-05-24T02:50:29.786Z,86.14
2023-05-24T02:52:57.115Z,85.44
2023-05-24T02:55:25.026Z,85.35
2023-05-24T02:57:52.299Z,85.25
2023-05-24T03:00:20.024Z,85.54
2023-05-24T03:02:47.612Z,85.81
2023-05-24T03:05:15.326Z,86.14
2023-05-24T03:07:43.883Z,86.06
2023-05-24T03:10:12.571Z,85.98
2023-05-24T03:12:41.746Z,85.83
2023-05-24T03:15:10.116Z,85.46
2023-05-24T03:17:37.352Z,86.18
2023-05-24T03:20:06.117Z,86.41
2023-05-24T03:22:33.671Z,86.52
2023-05-24T03:25:02.372Z,86.43
2023-05-24T03:27:29.649Z,86.38
2023-05-24T03:29:56.856Z,86.80
2023-05-24T03:32:27.643Z,86.96
2023-05-24T03:34:54.881Z,87.59
2023-05-24T03:37:22.650Z,88.48
2023-05-24T03:39:49.995Z,89.77
2023-05-24T03:42:47.878Z,89.80
2023-05-24T03:45:21.503Z,89.01
2023-05-24T03:47:54.537Z,89.63
2023-05-24T03:50:21.832Z,90.00
2023-05-24T03:52:49.070Z,90.28
2023-05-24T03:55:16.411Z,90.16
2023-05-24T03:57:43.619Z,90.71
2023-05-24T04:00:13.364Z,91.02
2023-05-24T04:02:47.374Z,91.55
2023-05-24T04:05:14.839Z,92.47
2023-05-24T04:07:42.197Z,92.62
2023-05-24T04:10:09.881Z,93.39
2023-05-24T04:12:37.154Z,92.33
2023-05-24T04:15:08.384Z,92.15
2023-05-24T04:17:37.155Z,91.74
2023-05-24T04:20:06.600Z,91.59
2023-05-24T04:22:33.826Z,90.94
2023-05-24T04:25:01.626Z,89.41
2023-05-24T04:27:28.850Z,88.40
2023-05-24T04:29:56.181Z,87.64
2023-05-24T04:32:23.465Z,86.81
2023-05-24T04:34:52.103Z,86.89
2023-05-24T04:37:19.370Z,85.91
2023-05-24T04:39:48.058Z,84.81
2023-05-24T04:42:15.482Z,83.83
2023-05-24T04:44:42.768Z,83.55
2023-05-24T04:47:10.001Z,83.19
2023-05-24T04:49:37.184Z,82.57
2023-05-24T04:52:06.846Z,82.11
2023-05-24T04:54:34.246Z,80.94
2023-05-24T04:57:01.470Z,80.70
2023-05-24T04:59:28.699Z,80.77
2023-05-24T05:01:56.228Z,80.40
2023-05-24T05:04:23.546Z,80.36
2023-05-24T05:06:50.851Z,80.39
2023-05-24T05:09:19.487Z,80.05
2023-05-24T05:11:47.065Z,78.95
2023-05-24T05:14:14.257Z,78.69
2023-05-24T05:16:42.285Z,77.93
2023-05-24T05:19:09.525Z,77.43
2023-05-24T05:21:36.772Z,77.71
2023-05-24T05:24:04.060Z,77.33
2023-05-24T05:26:32.662Z,77.77
2023-05-24T05:28:59.857Z,77.26
2023-05-24T05:31:27.115Z,76.25
2023-05-24T05:33:54.353Z,75.50
2023-05-24T05:36:21.559Z,74.84
2023-05-24T05:38:48.786Z,74.55
2023-05-24T05:41:16.054Z,73.97
2023-05-24T05:43:44.644Z,74.07
2023-05-24T05:46:11.894Z,74.58
2023-05-24T05:48:39.164Z,73.96
2023-05-24T05:51:06.504Z,73.88
2023-05-24T05:53:33.879Z,74.34
2023-05-24T05:56:01.084Z,73.88
2023-05-24T05:58:28.246Z,73.57
2023-05-24T06:00:56.811Z,72.96
2023-05-24T06:03:24.184Z,72.26
2023-05-24T06:05:51.542Z,70.61
2023-05-24T06:08:18.727Z,69.89
2023-05-24T06:10:45.981Z,69.83
2023-05-24T06:13:13.579Z,68.60
2023-05-24T06:15:40.873Z,69.17
2023-05-24T06:18:09.448Z,68.10
2023-05-24T06:20:36.889Z,67.61
2023-05-24T06:23:04.397Z,67.60
2023-05-24T06:25:31.586Z,67.58
2023-05-24T06:27:58.813Z,67.14
2023-05-24T06:30:26.151Z,67.54
2023-05-24T06:32:53.404Z,67.65
2023-05-24T06:35:22.300Z,67.69
2023-05-24T06:37:49.567Z,68.41
2023-05-24T06:40:16.888Z,68.07
2023-05-24T06:42:44.088Z,68.12
2023-05-24T06:45:11.816Z,68.46
2023-05-24T06:47:39.661Z,68.08
2023-05-24T06:50:08.425Z,65.54
2023-05-24T06:52:37.014Z,66.01
2023-05-24T06:55:04.872Z,64.19
2023-05-24T06:57:32.105Z,64.47
2023-05-24T06:59:59.302Z,64.76
2023-05-24T07:02:26.707Z,65.68
2023-05-24T07:04:54.420Z,65.12
2023-05-24T07:07:21.765Z,65.25
2023-05-24T07:09:50.363Z,66.46
2023-05-24T07:12:17.718Z,66.79
2023-05-24T07:14:44.965Z,66.14
2023-05-24T07:17:12.359Z,65.67
2023-05-24T07:19:39.667Z,65.77
2023-05-24T07:22:07.111Z,66.42
2023-05-24T07:24:34.331Z,63.93
2023-05-24T07:27:03.058Z,64.35
2023-05-24T07:29:30.284Z,64.93
2023-05-24T07:31:58.021Z,66.33
2023-05-24T07:34:25.363Z,66.70
2023-05-24T07:36:52.557Z,66.82
2023-05-24T07:39:19.779Z,66.33
2023-05-24T07:41:47.027Z,65.80
2023-05-24T07:44:15.632Z,65.86
2023-05-24T07:46:43.010Z,65.36
2023-05-24T07:49:10.263Z,65.12
2023-05-24T07:51:37.605Z,65.44
2023-05-24T07:54:05.399Z,65.32
2023-05-24T07:56:32.738Z,65.99
2023-05-24T07:59:00.261Z,65.14
2023-05-24T08:01:28.888Z,65.18
2023-05-24T08:03:56.610Z,64.88
2023-05-24T08:06:24.088Z,64.29
2023-05-24T08:08:51.322Z,65.09
2023-05-24T08:11:18.610Z,64.95
2023-05-24T08:13:45.793Z,64.77
2023-05-24T08:16:13.091Z,64.78
2023-05-24T08:18:41.737Z,64.63
2023-05-24T08:21:08.985Z,64.68
2023-05-24T08:23:36.192Z,64.82
2023-05-24T08:26:03.774Z,64.61
2023-05-24T08:28:31.071Z,65.43
2023-05-24T08:30:58.368Z,64.55
2023-05-24T08:33:25.601Z,64.91
2023-05-24T08:35:54.256Z,63.66
2023-05-24T08:38:21.545Z,61.94
2023-05-24T08:40:48.776Z,57.25
2023-05-24T08:43:16.814Z,57.74
2023-05-24T08:45:45.503Z,57.61
2023-05-24T08:48:14.401Z,58.54
2023-05-24T08:50:42.934Z,58.49
2023-05-24T08:53:12.692Z,59.77
2023-05-24T08:55:40.948Z,58.25
2023-05-24T08:58:09.528Z,58.08
2023-05-24T09:00:36.810Z,58.80
2023-05-24T09:03:05.159Z,59.18
2023-05-24T09:05:33.440Z,60.34
2023-05-24T09:08:02.037Z,58.87
2023-05-24T09:10:44.968Z,58.87
2023-05-24T09:13:20.273Z,59.91
2023-05-24T09:15:47.619Z,60.51
2023-05-24T09:18:14.934Z,60.31
2023-05-24T09:20:42.387Z,61.33
2023-05-24T09:23:11.315Z,61.81
2023-05-24T09:25:43.789Z,61.49
2023-05-24T09:28:13.550Z,61.60
2023-05-24T09:30:43.464Z,60.35
2023-05-24T09:33:11.205Z,60.35
2023-05-24T09:35:42.473Z,58.66
2023-05-24T09:38:17.109Z,58.27
2023-05-24T09:40:46.201Z,58.67
2023-05-24T09:43:13.466Z,57.91
2023-05-24T09:45:44.567Z,57.84
2023-05-24T09:48:12.808Z,57.49
2023-05-24T09:50:40.254Z,57.56
2023-05-24T09:53:07.948Z,55.29
2023-05-24T09:55:36.689Z,54.21
2023-05-24T09:58:06.546Z,53.18
2023-05-24T10:00:35.322Z,52.50
2023-05-24T10:03:03.943Z,54.09
2023-05-24T10:05:31.379Z,53.97
2023-05-24T10:07:59.032Z,54.68
2023-05-24T10:10:28.122Z,55.18
2023-05-24T10:12:56.293Z,52.28
2023-05-24T10:15:25.648Z,52.27
2023-05-24T10:17:53.457Z,52.72
2023-05-24T10:20:20.861Z,51.56
2023-05-24T10:22:51.784Z,53.28
2023-05-24T10:25:21.854Z,54.27
2023-05-24T10:27:51.893Z,55.32
2023-05-24T10:30:29.402Z,54.02
2023-05-24T10:32:57.397Z,53.69
2023-05-24T10:35:25.466Z,53.41
2023-05-24T10:37:53.566Z,53.58
2023-05-24T10:40:22.521Z,54.82
2023-05-24T10:42:50.195Z,54.57
2023-05-24T10:45:32.504Z,52.77
2023-05-24T10:48:02.143Z,52.80
2023-05-24T10:50:29.415Z,51.54
2023-05-24T10:53:11.826Z,54.03
2023-05-24T10:55:52.779Z,53.09
2023-05-24T10:58:20.115Z,53.75
2023-05-24T11:00:51.836Z,50.18
2023-05-24T11:03:19.485Z,52.80
2023-05-24T11:05:52.099Z,50.54
2023-05-24T11:08:29.704Z,50.97
2023-05-24T11:11:28.063Z,48.93
2023-05-24T11:13:57.846Z,48.60
2023-05-24T11:16:38.552Z,49.14
2023-05-24T11:19:14.708Z,49.10
2023-05-24T11:21:44.416Z,48.75
2023-05-24T11:24:11.884Z,49.39
2023-05-24T11:26:39.494Z,48.90
2023-05-24T11:29:07.736Z,51.15
2023-05-24T11:31:39.693Z,49.81
2023-05-24T11:34:10.346Z,49.49
2023-05-24T11:36:37.586Z,49.00
2023-05-24T11:39:07.737Z,48.01
2023-05-24T11:41:38.971Z,50.29
2023-05-24T11:44:07.726Z,49.68
2023-05-24T11:46:36.881Z,50.22
2023-05-24T11:49:04.100Z,49.35
2023-05-24T11:51:34.304Z,49.69
2023-05-24T11:54:01.547Z,48.93
2023-05-24T11:56:33.192Z,48.59
2023-05-24T11:59:09.792Z,49.19
2023-05-24T12:01:38.457Z,46.10
2023-05-24T12:04:06.699Z,48.19
2023-05-24T12:06:35.372Z,48.84
2023-05-24T12:09:02.662Z,47.47
2023-05-24T12:11:29.872Z,48.32
2023-05-24T12:13:58.000Z,48.16
2023-05-24T12:16:25.404Z,46.65
2023-05-24T12:19:05.218Z,46.25
2023-05-24T12:21:41.067Z,47.21
2023-05-24T12:24:09.517Z,49.17
2023-05-24T12:26:37.639Z,50.52
2023-05-24T12:29:04.862Z,50.27
2023-05-24T12:31:32.130Z,48.68
2023-05-24T12:34:00.770Z,48.86
2023-05-24T12:36:28.755Z,46.19
2023-05-24T12:38:57.137Z,46.60
2023-05-24T12:41:24.596Z,45.88
2023-05-24T12:43:52.248Z,47.20
2023-05-24T12:46:19.426Z,44.48
2023-05-24T12:48:46.738Z,44.60
2023-05-24T12:51:15.263Z,43.85
2023-05-24T12:53:42.469Z,46.98
2023-05-24T12:56:09.733Z,44.30
2023-05-24T12:58:36.949Z,43.94
2023-05-24T13:01:04.246Z,44.22
2023-05-24T13:03:31.472Z,44.68
2023-05-24T13:05:58.720Z,44.66
2023-05-24T13:08:27.369Z,43.95
2023-05-24T13:10:54.593Z,43.81
2023-05-24T13:13:21.928Z,42.88
2023-05-24T13:15:49.165Z,44.91
2023-05-24T13:18:16.414Z,44.52
2023-05-24T13:20:43.914Z,44.48
2023-05-24T13:23:11.522Z,45.11
2023-05-24T13:25:40.082Z,43.53
2023-05-24T13:28:07.293Z,44.28
2023-05-24T13:30:34.496Z,44.49
2023-05-24T13:33:01.761Z,42.67
2023-05-24T13:35:29.705Z,42.51
2023-05-24T13:37:56.948Z,44.52
2023-05-24T13:40:24.200Z,45.05
2023-05-24T13:42:52.864Z,45.10
2023-05-24T13:45:20.079Z,45.74
2023-05-24T13:47:47.398Z,44.87
2023-05-24T13:50:15.015Z,45.01
2023-05-24T13:52:42.262Z,43.59
2023-05-24T13:55:09.901Z,43.64
2023-05-24T13:57:49.887Z,43.93
2023-05-24T14:00:21.112Z,44.34
2023-05-24T14:02:48.724Z,44.08
2023-05-24T14:05:25.941Z,44.55
2023-05-24T14:07:55.014Z,44.53
2023-05-24T14:10:22.323Z,45.82
2023-05-24T14:13:03.430Z,44.42
2023-05-24T14:15:38.330Z,44.78
2023-05-24T14:18:06.211Z,43.95
2023-05-24T14:20:34.136Z,45.01
2023-05-24T14:23:01.373Z,45.33
2023-05-24T14:25:28.614Z,45.04
2023-05-24T14:27:55.857Z,44.35
2023-05-24T14:30:23.151Z,43.88
2023-05-24T14:32:51.765Z,43.94
2023-05-24T14:35:18.996Z,42.42
2023-05-24T14:37:46.240Z,43.07
2023-05-24T14:40:14.066Z,42.43
2023-05-24T14:42:41.547Z,43.12
2023-05-24T14:45:10.153Z,42.73
2023-05-24T14:47:37.374Z,42.11
2023-05-24T14:50:07.377Z,42.13
2023-05-24T14:52:34.571Z,43.23
2023-05-24T14:55:03.106Z,44.55
2023-05-24T14:57:30.325Z,43.45
2023-05-24T14:59:57.567Z,45.75
2023-05-24T15:02:24.900Z,45.75
2023-05-24T15:04:52.138Z,45.87
2023-05-24T15:07:21.616Z,47.21
2023-05-24T15:09:48.846Z,47.12
2023-05-24T15:12:16.043Z,46.80
2023-05-24T15:14:43.401Z,46.34
2023-05-24T15:17:11.806Z,45.36
2023-05-24T15:19:39.057Z,46.97
2023-05-24T15:22:06.751Z,46.15
2023-05-24T15:24:37.502Z,48.12
2023-05-24T15:27:04.940Z,47.46
2023-05-24T15:29:32.111Z,47.40
2023-05-24T15:31:59.370Z,46.01
2023-05-24T15:34:29.301Z,45.63
2023-05-24T15:36:56.492Z,46.19
2023-05-24T15:39:23.722Z,45.98
2023-05-24T15:41:52.292Z,46.20
2023-05-24T15:44:19.559Z,45.08
2023-05-24T15:46:46.911Z,45.88
2023-05-24T15:49:14.146Z,44.95
2023-05-24T15:54:11.526Z,45.85
2023-05-24T15:56:38.750Z,46.08
2023-05-24T15:59:07.314Z,46.60
2023-05-24T16:01:34.686Z,47.00
2023-05-24T16:04:02.001Z,47.47
2023-05-24T16:06:29.324Z,47.85
2023-05-24T16:08:56.560Z,47.51
2023-05-24T16:11:23.891Z,47.91
2023-05-24T16:13:51.097Z,48.67
2023-05-24T16:16:19.770Z,49.41
2023-05-24T16:18:46.976Z,48.05
2023-05-24T16:21:14.188Z,48.48
2023-05-24T16:23:41.389Z,47.75
2023-05-24T16:26:08.683Z,48.32
2023-05-24T16:28:35.883Z,48.22
2023-05-24T16:31:03.177Z,48.60
2023-05-24T16:33:31.864Z,48.39
2023-05-24T16:36:01.202Z,48.30
2023-05-24T16:38:29.897Z,47.77
2023-05-24T16:40:57.106Z,48.63
2023-05-24T16:43:24.332Z,49.02
2023-05-24T16:45:51.848Z,49.11
2023-05-24T16:48:19.368Z,48.86
2023-05-24T16:50:48.149Z,49.35
2023-05-24T16:53:15.464Z,48.80
2023-05-24T16:55:42.674Z,49.15
2023-05-24T16:58:09.912Z,48.18
2023-05-24T17:00:37.147Z,48.14
2023-05-24T17:03:04.437Z,48.34
2023-05-24T17:05:31.695Z,47.99
2023-05-24T17:08:00.274Z,47.97
2023-05-24T17:10:27.479Z,47.79
2023-05-24T17:12:54.703Z,47.12
2023-05-24T17:15:21.954Z,46.68
2023-05-24T17:17:49.248Z,46.21
2023-05-24T17:20:16.633Z,46.13
2023-05-24T17:22:43.894Z,46.62
2023-05-24T17:25:12.518Z,46.99
2023-05-24T17:27:39.745Z,48.14
2023-05-24T17:30:08.094Z,48.38
2023-05-24T17:32:35.367Z,49.05
2023-05-24T17:35:02.804Z,49.73
2023-05-24T17:37:30.005Z,50.50
2023-05-24T17:39:57.225Z,51.42
2023-05-24T17:42:25.815Z,52.57
2023-05-24T17:44:53.052Z,52.25
2023-05-24T17:47:20.304Z,52.49
2023-05-24T17:49:47.528Z,54.00
2023-05-24T17:52:14.777Z,54.96
2023-05-24T17:54:42.096Z,55.14
2023-05-24T17:57:09.363Z,53.02
2023-05-24T17:59:38.040Z,52.91
2023-05-24T18:02:05.250Z,53.33
2023-05-24T18:04:32.568Z,54.58
2023-05-24T18:06:59.929Z,53.98
2023-05-24T18:09:27.163Z,55.41
2023-05-24T18:11:54.383Z,55.54
2023-05-24T18:14:21.625Z,55.59
2023-05-24T18:16:50.289Z,56.45
2023-05-24T18:19:17.730Z,57.28
2023-05-24T18:21:44.919Z,57.55
2023-05-24T18:24:12.140Z,58.27
2023-05-24T18:26:39.366Z,57.96
2023-05-24T18:29:06.583Z,58.62
2023-05-24T18:31:33.816Z,58.92
2023-05-24T18:34:02.644Z,59.18
2023-05-24T18:36:30.153Z,59.47
2023-05-24T18:38:57.351Z,59.89
2023-05-24T18:41:24.681Z,60.59
2023-05-24T18:43:51.911Z,60.78
2023-05-24T18:46:19.206Z,60.94
2023-05-24T18:48:46.584Z,61.13
2023-05-24T18:51:15.122Z,61.25
2023-05-24T18:53:42.346Z,62.27
2023-05-24T18:56:09.630Z,62.84
2023-05-24T18:58:36.875Z,63.12
2023-05-24T19:01:04.137Z,63.64
2023-05-24T19:03:31.411Z,63.70
2023-05-24T19:05:58.625Z,63.91
2023-05-24T19:08:27.159Z,64.62
2023-05-24T19:10:54.372Z,65.08
2023-05-24T19:13:21.588Z,65.37
2023-05-24T19:15:48.854Z,65.55
2023-05-24T19:18:16.033Z,66.63
2023-05-24T19:20:43.301Z,66.67
2023-05-24T19:23:10.529Z,66.22
2023-05-24T19:25:41.412Z,67.10
2023-05-24T19:28:10.579Z,67.93
2023-05-24T19:30:37.808Z,68.69
2023-05-24T19:33:05.170Z,68.40
2023-05-24T19:35:32.452Z,68.80
2023-05-24T19:37:59.626Z,69.65
2023-05-24T19:40:26.852Z,69.84
2023-05-24T19:42:55.442Z,69.29
2023-05-24T19:45:22.759Z,69.86
2023-05-24T19:47:49.989Z,70.67
2023-05-24T19:50:18.183Z,70.51
2023-05-24T19:52:45.453Z,70.76
2023-05-24T19:55:12.665Z,71.71
2023-05-24T19:57:39.890Z,73.93
2023-05-24T20:00:09.280Z,74.89
2023-05-24T20:02:39.361Z,75.73
2023-05-24T20:05:07.381Z,75.34
2023-05-24T20:07:34.571Z,75.39
2023-05-24T20:10:01.861Z,75.93
2023-05-24T20:12:29.084Z,75.59
2023-05-24T20:14:56.282Z,75.31
2023-05-24T20:17:25.097Z,75.73
2023-05-24T20:19:52.387Z,76.06
2023-05-24T20:22:19.673Z,76.55
2023-05-24T20:24:46.929Z,76.74
2023-05-24T20:27:14.134Z,77.50
2023-05-24T20:29:42.285Z,78.30
2023-05-24T20:32:09.496Z,78.61
2023-05-24T20:34:38.113Z,78.27
2023-05-24T20:37:05.815Z,78.56
2023-05-24T20:39:33.052Z,78.99
2023-05-24T20:42:00.286Z,79.29
2023-05-24T20:44:27.475Z,79.82
2023-05-24T20:46:54.698Z,80.02
2023-05-24T20:49:22.069Z,81.15
2023-05-24T20:51:50.645Z,81.54
2023-05-24T20:54:17.849Z,81.74
2023-05-24T20:56:45.032Z,82.28
2023-05-24T20:59:12.249Z,82.95
2023-05-24T21:01:39.432Z,82.91
2023-05-24T21:04:06.790Z,83.33
2023-05-24T21:06:34.354Z,83.65
2023-05-24T21:09:03.062Z,83.26
2023-05-24T21:11:30.518Z,83.18
2023-05-24T21:13:57.755Z,83.88
2023-05-24T21:16:25.291Z,85.36
2023-05-24T21:18:52.552Z,85.30
2023-05-24T21:21:19.781Z,85.59
2023-05-24T21:23:46.983Z,85.74
2023-05-24T21:26:15.700Z,85.37
2023-05-24T21:28:42.997Z,85.64
2023-05-24T21:31:10.291Z,86.15
2023-05-24T21:33:37.582Z,86.22
2023-05-24T21:36:04.960Z,87.29
2023-05-24T21:38:32.230Z,87.17
2023-05-24T21:40:59.464Z,88.17
2023-05-24T21:43:28.052Z,88.40
2023-05-24T21:45:55.290Z,88.89
2023-05-24T21:48:22.617Z,88.91
2023-05-24T21:50:49.834Z,89.33
2023-05-24T21:53:17.039Z,88.99
2023-05-24T21:55:44.414Z,89.02
2023-05-24T21:58:11.784Z,88.57
2023-05-24T22:00:40.330Z,90.56
2023-05-24T22:03:07.740Z,90.81
2023-05-24T22:05:35.058Z,91.28
2023-05-24T22:08:02.353Z,91.19
2023-05-24T22:10:29.716Z,90.53
2023-05-24T22:12:57.024Z,91.33
2023-05-24T22:15:24.304Z,91.28
2023-05-24T22:17:52.853Z,90.99
2023-05-24T22:20:20.144Z,91.35
2023-05-24T22:22:47.386Z,92.12
2023-05-24T22:25:15.061Z,91.74
2023-05-24T22:27:42.245Z,92.25
2023-05-24T22:30:10.388Z,92.48
2023-05-24T22:32:37.629Z,92.56
2023-05-24T22:35:06.990Z,93.60
2023-05-24T22:37:34.982Z,93.92
2023-05-24T22:40:02.561Z,93.03
2023-05-24T22:42:30.070Z,93.64
2023-05-24T22:44:57.493Z,92.33
2023-05-24T22:47:24.757Z,92.91
2023-05-24T22:49:52.456Z,93.66
2023-05-24T22:52:21.308Z,95.19
2023-05-24T22:54:48.525Z,94.55
2023-05-24T22:57:15.807Z,93.55
2023-05-24T22:59:43.002Z,94.72
2023-05-24T23:02:10.250Z,94.79
2023-05-24T23:04:37.474Z,95.66
2023-05-24T23:07:04.786Z,96.73
2023-05-24T23:09:33.359Z,97.65
2023-05-24T23:12:00.928Z,96.55
2023-05-24T23:14:28.231Z,96.55
2023-05-24T23:16:55.552Z,96.06
2023-05-24T23:19:22.762Z,95.70
2023-05-24T23:21:49.979Z,95.42
2023-05-24T23:24:17.229Z,96.45
2023-05-24T23:26:45.776Z,97.20
2023-05-24T23:29:13.127Z,97.58
2023-05-24T23:31:40.454Z,97.30
2023-05-24T23:34:07.724Z,97.66
2023-05-24T23:36:34.920Z,97.54
2023-05-24T23:39:02.158Z,97.76
2023-05-24T23:41:29.327Z,97.15
2023-05-24T23:43:57.897Z,97.30
2023-05-24T23:46:25.266Z,97.66
2023-05-24T23:48:52.498Z,96.76
2023-05-24T23:51:19.707Z,97.70
2023-05-24T23:53:46.903Z,97.09
2023-05-24T23:56:14.189Z,98.31
2023-05-24T23:58:41.400Z,99.11
